Time;durP1;ratioP1;P1;durP2;ratioP2;P2;SDS_P1;SDS_P2;PMS_P1;PMS_P2;Temp;Humidity;BMP_temperature;BMP_pressure;BME280_temperature;BME280_humidity;BME280_pressure;Samples;Min_cycle;Max_cycle;Signal;HPM_P1;HPM_P2
2020/12/31 00:02:32;;;;;;;4.50;4.10;;;6.10;40.30;;;;;;10450609;28;20652;-73
2020/12/31 00:07:35;;;;;;;3.60;3.30;;;6.00;40.30;;;;;;10456770;28;20608;-74
2020/12/31 00:12:38;;;;;;;3.63;3.20;;;6.00;40.40;;;;;;10453567;28;20329;-73
2020/12/31 00:17:40;;;;;;;3.40;3.10;;;5.90;40.60;;;;;;10452714;28;20225;-73
2020/12/31 00:22:43;;;;;;;3.20;2.90;;;5.90;40.60;;;;;;10458716;28;20232;-74
2020/12/31 00:27:46;;;;;;;2.83;2.63;;;5.90;40.60;;;;;;10449439;28;20644;-74
2020/12/31 00:32:50;;;;;;;3.20;3.00;;;5.80;40.70;;;;;;10452198;28;20307;-74
2020/12/31 00:37:52;;;;;;;3.30;3.00;;;5.80;40.80;;;;;;10449690;28;20227;-73
2020/12/31 00:42:55;;;;;;;2.80;2.60;;;5.90;40.80;;;;;;10450310;28;20303;-74
2020/12/31 00:47:57;;;;;;;3.03;2.77;;;5.90;40.80;;;;;;10453097;28;20240;-74
2020/12/31 00:52:59;;;;;;;3.23;2.93;;;5.90;40.60;;;;;;10447027;28;20233;-74
2020/12/31 00:58:02;;;;;;;3.07;2.83;;;5.90;40.60;;;;;;10452193;28;20221;-73
2020/12/31 01:03:07;;;;;;;4.07;3.10;;;6.00;40.70;;;;;;10453464;28;20228;-73
2020/12/31 01:08:09;;;;;;;3.00;2.70;;;6.00;40.70;;;;;;10454202;28;20229;-74
2020/12/31 01:13:12;;;;;;;3.10;2.90;;;5.90;40.50;;;;;;10449609;28;20226;-73
2020/12/31 01:18:14;;;;;;;2.90;2.70;;;5.90;40.50;;;;;;10463205;28;20228;-74
2020/12/31 01:23:16;;;;;;;2.83;2.63;;;5.90;40.50;;;;;;10451397;28;20226;-74
2020/12/31 01:28:19;;;;;;;2.83;2.50;;;5.90;40.60;;;;;;10449455;28;20225;-73
2020/12/31 01:33:22;;;;;;;2.60;2.40;;;5.90;40.70;;;;;;10448462;28;20308;-74
2020/12/31 01:38:24;;;;;;;3.10;2.80;;;5.90;40.80;;;;;;10454267;28;20835;-74
2020/12/31 01:43:27;;;;;;;2.40;2.30;;;6.00;40.80;;;;;;10446260;28;20229;-74
2020/12/31 01:48:29;;;;;;;2.83;2.63;;;6.00;40.80;;;;;;10454858;28;20233;-74
2020/12/31 01:53:31;;;;;;;3.20;2.93;;;6.00;40.80;;;;;;10446659;28;20250;-74
2020/12/31 01:58:35;;;;;;;2.97;2.77;;;6.10;40.90;;;;;;10449925;28;20221;-74
2020/12/31 02:03:37;;;;;;;3.20;2.90;;;6.10;40.80;;;;;;10460566;28;20308;-74
2020/12/31 02:08:39;;;;;;;3.07;2.80;;;6.20;40.80;;;;;;10457460;28;20229;-74
2020/12/31 02:13:43;;;;;;;3.00;2.80;;;6.20;40.60;;;;;;10453687;28;20229;-74
2020/12/31 02:18:54;;;;;;;2.77;2.57;;;6.20;40.50;;;;;;10456452;28;20310;-74
2020/12/31 02:23:58;;;;;;;2.90;2.70;;;6.10;40.60;;;;;;10453417;28;20242;-74
2020/12/31 02:29:03;;;;;;;2.97;2.70;;;6.10;40.60;;;;;;10460507;28;20233;-74
2020/12/31 02:34:07;;;;;;;3.17;2.87;;;6.10;40.70;;;;;;10452720;28;20282;-74
2020/12/31 02:39:12;;;;;;;3.10;2.80;;;6.20;40.60;;;;;;10457404;28;20251;-74
2020/12/31 02:44:15;;;;;;;3.07;2.87;;;6.20;40.60;;;;;;10457270;28;20226;-74
2020/12/31 02:49:17;;;;;;;3.03;2.77;;;6.20;40.40;;;;;;10456023;28;20251;-74
2020/12/31 02:54:20;;;;;;;3.13;2.83;;;6.20;40.50;;;;;;10452700;28;20635;-74
2020/12/31 02:59:22;;;;;;;3.30;3.10;;;6.20;40.50;;;;;;10461465;28;20232;-75
2020/12/31 03:04:24;;;;;;;2.90;2.60;;;6.10;40.40;;;;;;10454558;28;20732;-74
2020/12/31 03:09:27;;;;;;;3.17;2.97;;;6.10;40.30;;;;;;10457406;28;20618;-74
2020/12/31 03:14:29;;;;;;;2.83;2.63;;;6.10;40.20;;;;;;10452770;28;20231;-74
2020/12/31 03:19:31;;;;;;;2.77;2.57;;;6.00;40.20;;;;;;10466073;28;20304;-74
2020/12/31 03:24:34;;;;;;;3.30;3.10;;;5.90;40.20;;;;;;10459673;28;20597;-75
2020/12/31 03:29:36;;;;;;;2.90;2.70;;;5.90;40.20;;;;;;10456173;28;20225;-74
2020/12/31 03:34:38;;;;;;;3.03;2.83;;;5.90;40.20;;;;;;10456091;28;20328;-75
2020/12/31 03:39:42;;;;;;;3.43;3.13;;;5.90;40.10;;;;;;10460910;28;20221;-75
2020/12/31 03:44:44;;;;;;;3.10;2.77;;;5.90;40.10;;;;;;10453932;28;20221;-74
2020/12/31 03:49:46;;;;;;;2.93;2.73;;;5.80;40.00;;;;;;10454823;28;20239;-74
2020/12/31 03:54:49;;;;;;;3.07;2.80;;;5.80;40.00;;;;;;10451968;28;20239;-74
2020/12/31 03:59:52;;;;;;;2.90;2.70;;;5.70;40.00;;;;;;10460227;28;20225;-74
2020/12/31 04:04:54;;;;;;;3.87;3.20;;;5.70;40.00;;;;;;10462267;28;20229;-74
2020/12/31 04:09:57;;;;;;;3.60;3.10;;;5.60;39.80;;;;;;10450271;28;20232;-76
2020/12/31 04:14:59;;;;;;;3.53;3.23;;;5.60;39.80;;;;;;10454196;28;20235;-75
2020/12/31 04:20:01;;;;;;;3.80;3.50;;;5.60;39.80;;;;;;10453881;28;20217;-74
2020/12/31 04:25:04;;;;;;;3.37;3.10;;;5.50;39.70;;;;;;10454798;28;20247;-74
2020/12/31 04:30:07;;;;;;;3.27;2.97;;;5.50;39.60;;;;;;10457358;28;20224;-74
2020/12/31 04:35:09;;;;;;;3.50;3.20;;;5.40;39.60;;;;;;10448337;28;20228;-74
2020/12/31 04:40:12;;;;;;;3.07;2.87;;;5.40;39.60;;;;;;10460681;28;20579;-74
2020/12/31 04:45:14;;;;;;;3.70;3.30;;;5.30;39.60;;;;;;10456465;28;20229;-74
2020/12/31 04:50:21;;;;;;;3.47;3.17;;;5.30;39.60;;;;;;10451046;28;20225;-74
2020/12/31 04:55:27;;;;;;;3.07;2.87;;;5.20;39.60;;;;;;10452237;28;20234;-74
2020/12/31 05:00:29;;;;;;;3.23;3.00;;;5.10;39.60;;;;;;10447718;28;20312;-74
2020/12/31 05:05:31;;;;;;;3.40;3.13;;;5.00;39.70;;;;;;10452771;28;20228;-74
2020/12/31 05:10:35;;;;;;;3.10;2.90;;;4.90;39.50;;;;;;10447333;28;20236;-75
2020/12/31 05:15:39;;;;;;;3.60;3.30;;;4.80;39.70;;;;;;10454926;28;20770;-75
2020/12/31 05:20:43;;;;;;;3.30;3.10;;;4.80;39.70;;;;;;10446900;28;20221;-75
2020/12/31 05:25:46;;;;;;;3.20;2.93;;;4.70;39.60;;;;;;10459333;28;20240;-75
2020/12/31 05:30:50;;;;;;;2.87;2.57;;;4.60;39.70;;;;;;10454797;28;20323;-75
2020/12/31 05:35:52;;;;;;;2.83;2.63;;;4.60;39.70;;;;;;10453759;28;20596;-75
2020/12/31 05:41:00;;;;;;;3.13;2.93;;;4.60;39.70;;;;;;10468733;28;20701;-69
2020/12/31 05:46:07;;;;;;;3.53;3.30;;;4.60;39.90;;;;;;10463795;28;20229;-69
2020/12/31 05:51:23;;;;;;;3.63;3.13;;;4.60;39.70;;;;;;10456252;28;20441;-69
2020/12/31 05:56:31;;;;;;;3.77;3.50;;;4.60;39.70;;;;;;10462046;28;20220;-69
2020/12/31 06:01:36;;;;;;;4.47;4.10;;;4.60;39.60;;;;;;10463975;28;20232;-69
2020/12/31 06:06:48;;;;;;;3.53;3.23;;;4.50;39.50;;;;;;10459175;28;20233;-70
2020/12/31 06:11:58;;;;;;;3.47;3.27;;;4.50;39.40;;;;;;10453104;28;20233;-69
2020/12/31 06:17:01;;;;;;;3.93;3.63;;;4.50;39.40;;;;;;10462650;28;20256;-69
2020/12/31 06:22:05;;;;;;;3.07;2.87;;;4.40;39.30;;;;;;10456887;28;20247;-70
2020/12/31 06:27:10;;;;;;;3.00;2.80;;;4.40;39.40;;;;;;10468675;28;20243;-69
2020/12/31 06:32:25;;;;;;;3.23;3.00;;;4.40;39.30;;;;;;10452693;28;20237;-70
2020/12/31 06:37:29;;;;;;;3.13;2.90;;;4.50;39.40;;;;;;10458095;28;20234;-75
2020/12/31 06:43:09;;;;;;;4.20;3.63;;;4.30;39.10;;;;;;10460012;28;20222;-69
2020/12/31 06:48:36;;;;;;;4.00;3.70;;;4.20;39.00;;;;;;10460113;28;20221;-69
2020/12/31 06:53:40;;;;;;;3.63;3.33;;;4.20;39.00;;;;;;10452611;28;20232;-69
2020/12/31 06:58:44;;;;;;;5.07;4.67;;;4.20;39.10;;;;;;10458359;28;20615;-69
2020/12/31 07:03:47;;;;;;;5.97;4.37;;;4.10;39.00;;;;;;10455537;28;20229;-69
2020/12/31 07:08:50;;;;;;;5.00;4.60;;;4.00;39.10;;;;;;10457217;28;20240;-69
2020/12/31 07:13:53;;;;;;;5.90;5.40;;;4.00;39.10;;;;;;10462186;28;20228;-69
2020/12/31 07:18:57;;;;;;;6.00;5.40;;;4.00;39.10;;;;;;10452230;28;20244;-69
2020/12/31 07:24:23;;;;;;;6.93;6.33;;;3.90;39.00;;;;;;10455792;28;20255;-69
2020/12/31 07:29:28;;;;;;;6.90;6.30;;;3.90;38.90;;;;;;10458997;28;20586;-69
2020/12/31 07:34:32;;;;;;;5.63;5.13;;;3.90;38.90;;;;;;10453762;28;20222;-69
2020/12/31 07:39:35;;;;;;;4.90;4.50;;;3.90;39.00;;;;;;10463154;28;20217;-69
2020/12/31 07:44:54;;;;;;;5.87;5.37;;;4.00;39.20;;;;;;10461559;28;20244;-69
2020/12/31 07:49:56;;;;;;;5.43;4.93;;;3.80;39.40;;;;;;10457288;28;20598;-69
2020/12/31 07:55:02;;;;;;;6.13;5.53;;;3.80;39.50;;;;;;10452614;28;20236;-69
2020/12/31 08:00:06;;;;;;;6.93;6.30;;;4.00;40.10;;;;;;10452774;28;20225;-69
2020/12/31 08:05:12;;;;;;;7.97;7.20;;;4.00;40.20;;;;;;10455972;28;20235;-69
2020/12/31 08:10:14;;;;;;;7.13;6.43;;;4.10;40.30;;;;;;10459543;28;20221;-69
2020/12/31 08:15:20;;;;;;;6.40;5.80;;;4.30;40.40;;;;;;10450126;28;20270;-68
2020/12/31 08:20:25;;;;;;;5.97;5.37;;;4.50;40.70;;;;;;10456725;28;20227;-67
2020/12/31 08:25:31;;;;;;;5.03;4.63;;;4.60;40.50;;;;;;10454803;28;20412;-68
2020/12/31 08:30:36;;;;;;;5.40;5.00;;;4.80;40.60;;;;;;10453150;28;20221;-68
2020/12/31 08:35:41;;;;;;;5.83;5.33;;;5.00;40.60;;;;;;10454601;28;20237;-68
2020/12/31 08:40:46;;;;;;;6.43;5.83;;;5.10;40.40;;;;;;10452216;28;20731;-68
2020/12/31 08:45:50;;;;;;;6.40;5.83;;;5.20;40.30;;;;;;10457212;28;20220;-68
2020/12/31 08:51:03;;;;;;;6.97;6.37;;;5.20;40.30;;;;;;10449882;28;20225;-68
2020/12/31 08:56:12;;;;;;;6.30;5.70;;;5.40;40.30;;;;;;10465394;28;20244;-73
2020/12/31 09:01:25;;;;;;;6.90;6.30;;;5.40;40.30;;;;;;10447613;28;20223;-73
2020/12/31 09:06:27;;;;;;;7.07;6.43;;;5.60;40.50;;;;;;10450457;28;20232;-73
2020/12/31 09:11:30;;;;;;;7.53;6.77;;;5.80;40.50;;;;;;10454886;28;20233;-73
2020/12/31 09:16:33;;;;;;;7.00;6.40;;;5.90;40.50;;;;;;10459027;28;20231;-73
2020/12/31 09:21:36;;;;;;;7.73;6.93;;;6.10;40.50;;;;;;10464788;28;20251;-73
2020/12/31 09:26:38;;;;;;;6.63;6.03;;;6.30;40.50;;;;;;10455541;28;20241;-74
2020/12/31 09:31:41;;;;;;;6.63;6.03;;;6.50;40.30;;;;;;10459473;28;20237;-73
2020/12/31 09:36:43;;;;;;;6.67;5.53;;;6.60;40.20;;;;;;10456503;28;20323;-73
2020/12/31 09:41:47;;;;;;;6.00;5.50;;;6.70;40.30;;;;;;10460780;28;20225;-73
2020/12/31 09:46:51;;;;;;;5.40;4.90;;;6.90;40.20;;;;;;10460242;28;20487;-73
2020/12/31 09:51:53;;;;;;;4.17;3.87;;;7.10;40.30;;;;;;10456742;28;20233;-73
2020/12/31 09:56:55;;;;;;;3.80;3.50;;;7.30;40.10;;;;;;10456745;28;20228;-73
2020/12/31 10:01:59;;;;;;;3.40;3.10;;;7.40;39.90;;;;;;10457668;28;20225;-73
2020/12/31 10:07:01;;;;;;;3.40;3.10;;;7.50;39.30;;;;;;10460283;28;20247;-73
2020/12/31 10:12:03;;;;;;;3.57;3.27;;;7.60;39.50;;;;;;10460233;28;20239;-72
2020/12/31 10:17:06;;;;;;;3.50;3.20;;;7.70;39.50;;;;;;10462981;28;20256;-72
2020/12/31 10:22:09;;;;;;;2.93;2.73;;;7.70;39.70;;;;;;10467387;28;20224;-73
2020/12/31 10:27:11;;;;;;;2.70;2.50;;;7.80;39.10;;;;;;10460339;28;20432;-73
2020/12/31 10:32:14;;;;;;;2.63;2.43;;;7.80;39.10;;;;;;10455306;28;20229;-73
2020/12/31 10:37:17;;;;;;;3.50;3.20;;;7.80;39.10;;;;;;10454050;28;20233;-73
2020/12/31 10:42:19;;;;;;;3.93;3.63;;;7.90;39.20;;;;;;10456071;28;20236;-73
2020/12/31 10:47:22;;;;;;;4.40;3.03;;;8.00;39.30;;;;;;10457270;28;20580;-73
2020/12/31 10:52:24;;;;;;;5.00;4.60;;;8.10;39.30;;;;;;10452470;28;20251;-73
2020/12/31 10:57:26;;;;;;;5.97;5.47;;;8.30;39.50;;;;;;10463252;28;20228;-73
2020/12/31 11:02:29;;;;;;;3.93;3.63;;;8.40;39.50;;;;;;10467126;28;20307;-73
2020/12/31 11:07:32;;;;;;;3.77;3.47;;;8.50;39.00;;;;;;10464560;28;20269;-73
2020/12/31 11:12:35;;;;;;;4.20;3.80;;;8.60;38.80;;;;;;10464256;28;20234;-73
2020/12/31 11:17:38;;;;;;;3.60;3.30;;;8.60;38.80;;;;;;10451155;28;20608;-73
2020/12/31 11:22:40;;;;;;;4.27;3.87;;;8.70;38.60;;;;;;10459388;28;20251;-73
2020/12/31 11:27:42;;;;;;;3.97;3.60;;;8.80;38.80;;;;;;10455360;28;20224;-73
2020/12/31 11:32:45;;;;;;;3.30;3.00;;;8.90;38.60;;;;;;10454300;28;20625;-73
2020/12/31 11:37:47;;;;;;;3.20;2.90;;;9.00;37.70;;;;;;10454698;28;20624;-73
2020/12/31 11:42:49;;;;;;;3.13;2.90;;;8.90;37.50;;;;;;10449910;28;20223;-73
2020/12/31 11:47:52;;;;;;;3.20;2.90;;;8.80;37.80;;;;;;10456277;28;20274;-73
2020/12/31 11:52:54;;;;;;;3.77;2.97;;;8.80;37.50;;;;;;10450971;28;20250;-73
2020/12/31 11:57:57;;;;;;;3.67;3.30;;;8.80;38.60;;;;;;10459475;28;20315;-73
2020/12/31 12:03:00;;;;;;;4.33;3.90;;;8.90;37.70;;;;;;10452209;28;20307;-73
2020/12/31 12:08:02;;;;;;;3.03;2.80;;;8.90;37.60;;;;;;10449370;28;20685;-73
2020/12/31 12:13:04;;;;;;;2.97;2.77;;;9.00;37.60;;;;;;10455543;28;20815;-73
2020/12/31 12:18:07;;;;;;;7.70;6.97;;;9.00;37.30;;;;;;10448979;28;20220;-73
2020/12/31 12:23:09;;;;;;;2.60;2.40;;;9.10;36.80;;;;;;10460119;28;20570;-73
2020/12/31 12:28:11;;;;;;;2.30;2.10;;;9.10;36.60;;;;;;10453521;28;20232;-73
2020/12/31 12:33:14;;;;;;;2.67;2.23;;;9.00;36.00;;;;;;10456211;28;20593;-73
2020/12/31 12:38:17;;;;;;;3.17;2.87;;;9.00;36.40;;;;;;10457930;28;20231;-73
2020/12/31 12:43:19;;;;;;;4.73;3.20;;;9.00;36.70;;;;;;10449373;28;20220;-73
2020/12/31 12:48:22;;;;;;;4.90;4.37;;;9.00;36.70;;;;;;10454226;28;20243;-73
2020/12/31 12:53:24;;;;;;;3.97;3.50;;;9.00;36.50;;;;;;10459193;28;20237;-73
2020/12/31 12:58:26;;;;;;;2.67;2.47;;;9.00;36.40;;;;;;10453554;28;20232;-73
2020/12/31 13:03:29;;;;;;;2.83;2.60;;;9.00;36.50;;;;;;10447441;28;20596;-73
2020/12/31 13:08:31;;;;;;;2.50;2.30;;;9.00;36.00;;;;;;10450828;28;20697;-74
2020/12/31 13:13:35;;;;;;;2.57;2.37;;;8.90;35.80;;;;;;10458297;28;20232;-74
2020/12/31 13:18:38;;;;;;;2.50;2.30;;;8.90;36.00;;;;;;10450995;28;20370;-74
2020/12/31 13:23:40;;;;;;;3.00;2.70;;;8.80;36.10;;;;;;10458456;28;20236;-74
2020/12/31 13:28:43;;;;;;;2.57;2.37;;;8.90;36.00;;;;;;10447238;28;20237;-74
2020/12/31 13:33:52;;;;;;;3.60;3.30;;;8.90;36.20;;;;;;10450211;28;20243;-74
2020/12/31 13:38:54;;;;;;;2.40;2.20;;;8.90;36.10;;;;;;10449151;28;20243;-74
2020/12/31 13:43:57;;;;;;;2.70;2.50;;;8.90;36.20;;;;;;10456373;28;20255;-74
2020/12/31 13:49:00;;;;;;;2.83;2.63;;;8.90;36.00;;;;;;10451190;28;20233;-74
2020/12/31 13:54:02;;;;;;;3.47;3.17;;;8.90;35.80;;;;;;10446506;28;20604;-73
2020/12/31 13:59:04;;;;;;;4.13;2.67;;;8.90;36.00;;;;;;10460442;28;20239;-74
2020/12/31 14:04:09;;;;;;;2.60;2.40;;;8.90;36.20;;;;;;10458831;28;20232;-74
2020/12/31 14:09:11;;;;;;;2.70;2.50;;;8.80;35.80;;;;;;10454923;28;20232;-74
2020/12/31 14:14:13;;;;;;;2.90;2.70;;;8.80;36.00;;;;;;10459419;28;20255;-74
2020/12/31 14:19:16;;;;;;;2.77;2.57;;;8.80;36.00;;;;;;10456933;28;20423;-74
2020/12/31 14:24:18;;;;;;;2.73;2.53;;;8.80;35.50;;;;;;10460504;28;20229;-74
2020/12/31 14:29:20;;;;;;;3.43;3.13;;;8.70;35.80;;;;;;10462565;28;20316;-74
2020/12/31 14:34:24;;;;;;;2.80;2.60;;;8.70;36.00;;;;;;10453089;28;20225;-74
2020/12/31 14:39:26;;;;;;;2.73;2.53;;;8.60;35.80;;;;;;10465314;28;20224;-74
2020/12/31 14:44:28;;;;;;;2.83;2.63;;;8.60;35.90;;;;;;10457253;28;20225;-74
2020/12/31 14:49:32;;;;;;;3.07;2.80;;;8.60;35.70;;;;;;10456059;28;20619;-74
2020/12/31 14:54:35;;;;;;;2.77;2.57;;;8.50;35.60;;;;;;10456694;28;20224;-68
2020/12/31 14:59:37;;;;;;;2.77;2.57;;;8.50;35.80;;;;;;10459780;28;20701;-68
2020/12/31 15:04:40;;;;;;;4.43;3.60;;;8.50;36.00;;;;;;10456209;28;20224;-68
2020/12/31 15:09:42;;;;;;;4.80;4.40;;;8.50;35.80;;;;;;10452072;28;20730;-68
2020/12/31 15:14:45;;;;;;;7.73;7.03;;;8.50;35.90;;;;;;10452528;28;20232;-68
2020/12/31 15:19:48;;;;;;;26.10;18.77;;;8.40;35.80;;;;;;10459239;28;20231;-68
2020/12/31 15:24:51;;;;;;;62.23;51.73;;;8.40;35.70;;;;;;10458834;28;20311;-68
2020/12/31 15:29:53;;;;;;;19.20;14.20;;;8.40;35.80;;;;;;10453017;28;20232;-68
2020/12/31 15:34:56;;;;;;;29.00;23.50;;;8.40;35.80;;;;;;10461085;28;20233;-68
2020/12/31 15:39:58;;;;;;;10.30;9.30;;;8.30;35.70;;;;;;10466926;28;20225;-68
2020/12/31 15:45:00;;;;;;;8.67;7.83;;;8.30;35.80;;;;;;10452746;28;20232;-68
2020/12/31 15:50:05;;;;;;;246.97;157.50;;;8.30;35.70;;;;;;10450567;28;20231;-68
2020/12/31 15:55:08;;;;;;;78.50;51.40;;;8.20;35.50;;;;;;10454603;28;20339;-68
2020/12/31 16:00:13;;;;;;;48.93;33.27;;;8.20;35.90;;;;;;10453330;28;20594;-68
2020/12/31 16:05:17;;;;;;;40.50;29.77;;;8.20;35.60;;;;;;10455226;28;20232;-68
2020/12/31 16:10:19;;;;;;;20.00;16.33;;;8.10;35.80;;;;;;10450307;28;20244;-68
2020/12/31 16:15:21;;;;;;;12.63;11.10;;;8.00;35.70;;;;;;10455760;28;20237;-68
2020/12/31 16:20:24;;;;;;;12.17;10.30;;;8.00;35.80;;;;;;10452702;28;20224;-68
2020/12/31 16:25:29;;;;;;;18.53;16.43;;;7.90;35.80;;;;;;10450288;28;20239;-68
2020/12/31 16:30:31;;;;;;;21.63;18.57;;;7.80;35.70;;;;;;10462391;28;20285;-68
2020/12/31 16:35:34;;;;;;;17.50;15.23;;;7.80;35.60;;;;;;10449939;28;20233;-68
2020/12/31 16:40:36;;;;;;;18.70;15.53;;;7.60;35.30;;;;;;10451301;28;20237;-68
2020/12/31 16:45:39;;;;;;;17.57;15.00;;;7.50;35.60;;;;;;10451358;28;20495;-68
2020/12/31 16:50:42;;;;;;;22.90;18.90;;;7.30;35.70;;;;;;10451457;28;20231;-68
2020/12/31 16:55:44;;;;;;;27.50;20.87;;;7.30;35.80;;;;;;10455212;28;20615;-68
2020/12/31 17:00:46;;;;;;;35.10;26.60;;;7.20;36.00;;;;;;10447456;28;20242;-68
2020/12/31 17:05:49;;;;;;;23.93;18.63;;;7.10;35.90;;;;;;10453840;28;20243;-68
2020/12/31 17:10:51;;;;;;;19.60;16.53;;;7.10;35.90;;;;;;10447524;28;20235;-68
2020/12/31 17:16:02;;;;;;;17.23;14.80;;;7.00;35.90;;;;;;10450117;28;20324;-68
2020/12/31 17:21:07;;;;;;;17.57;14.90;;;7.00;35.90;;;;;;10452921;28;20225;-68
2020/12/31 17:26:09;;;;;;;20.20;15.77;;;6.90;35.80;;;;;;10451654;28;20229;-68
2020/12/31 17:31:11;;;;;;;15.27;13.43;;;6.80;36.00;;;;;;10460890;28;20228;-68
2020/12/31 17:36:14;;;;;;;17.50;13.37;;;6.70;36.00;;;;;;10456636;28;20300;-67
2020/12/31 17:41:18;;;;;;;17.63;15.13;;;6.60;36.00;;;;;;10461651;28;20225;-68
2020/12/31 17:46:23;;;;;;;17.97;14.93;;;6.50;36.00;;;;;;10458862;28;20714;-67
2020/12/31 17:51:26;;;;;;;15.73;13.53;;;6.50;36.20;;;;;;10457816;28;20303;-68
2020/12/31 17:56:28;;;;;;;15.10;13.50;;;6.50;36.30;;;;;;10467457;28;20323;-67
2020/12/31 18:01:31;;;;;;;15.33;13.70;;;6.50;36.40;;;;;;10464386;28;20235;-68
2020/12/31 18:06:37;;;;;;;14.93;13.40;;;6.40;36.30;;;;;;10463390;28;20291;-68
2020/12/31 18:11:39;;;;;;;15.30;12.43;;;6.40;36.50;;;;;;10457482;28;20232;-68
2020/12/31 18:16:41;;;;;;;14.07;12.67;;;6.30;36.50;;;;;;10468106;28;20237;-68
2020/12/31 18:21:47;;;;;;;15.97;14.27;;;6.30;36.70;;;;;;10460713;28;20229;-69
2020/12/31 18:26:49;;;;;;;13.30;11.93;;;6.30;36.80;;;;;;10454901;28;20233;-68
2020/12/31 18:31:51;;;;;;;16.87;14.77;;;6.30;36.80;;;;;;10455299;28;20236;-68
2020/12/31 18:36:54;;;;;;;21.40;19.30;;;6.30;37.00;;;;;;10456547;28;20231;-68
2020/12/31 18:41:56;;;;;;;23.37;20.97;;;6.30;37.10;;;;;;10465164;28;20228;-68
2020/12/31 18:46:59;;;;;;;23.33;20.93;;;6.20;37.20;;;;;;10456389;28;20607;-68
2020/12/31 18:52:02;;;;;;;21.90;19.50;;;6.30;37.40;;;;;;10454133;28;20228;-69
2020/12/31 18:57:04;;;;;;;20.13;18.07;;;6.30;37.30;;;;;;10458583;28;20225;-69
2020/12/31 19:02:08;;;;;;;14.97;13.47;;;6.30;37.50;;;;;;10451687;28;20734;-68
2020/12/31 19:07:12;;;;;;;17.57;15.77;;;6.30;37.60;;;;;;10460641;28;20233;-68
2020/12/31 19:12:14;;;;;;;15.53;13.40;;;6.20;37.40;;;;;;10451229;28;20766;-68
2020/12/31 19:17:21;;;;;;;17.53;15.63;;;6.20;37.80;;;;;;10458032;28;20792;-69
2020/12/31 19:22:24;;;;;;;14.10;12.67;;;6.20;37.70;;;;;;10454415;28;20235;-69
2020/12/31 19:27:27;;;;;;;11.53;10.33;;;6.20;37.60;;;;;;10451069;28;20239;-69
2020/12/31 19:32:30;;;;;;;10.50;8.87;;;6.20;37.30;;;;;;10456296;28;20592;-69
2020/12/31 19:37:35;;;;;;;9.13;8.33;;;6.20;37.50;;;;;;10456269;28;20228;-69
2020/12/31 19:42:37;;;;;;;15.80;13.50;;;6.10;37.40;;;;;;10461513;28;20228;-69
2020/12/31 19:47:40;;;;;;;15.73;12.33;;;6.00;37.40;;;;;;10457924;28;20243;-69
2020/12/31 19:52:48;;;;;;;12.10;10.17;;;5.90;37.50;;;;;;10460962;28;20237;-69
2020/12/31 19:57:52;;;;;;;13.90;12.27;;;5.80;37.40;;;;;;10454463;28;20229;-69
2020/12/31 20:02:57;;;;;;;12.30;11.10;;;5.80;37.50;;;;;;10449025;28;20219;-69
2020/12/31 20:08:01;;;;;;;11.23;10.13;;;5.70;37.40;;;;;;10456842;28;20225;-69
2020/12/31 20:13:03;;;;;;;9.37;8.47;;;5.70;37.40;;;;;;10454865;28;20216;-69
2020/12/31 20:18:05;;;;;;;10.50;9.50;;;5.60;37.30;;;;;;10456687;28;20228;-69
2020/12/31 20:23:08;;;;;;;9.00;8.10;;;5.60;37.30;;;;;;10453019;28;20716;-69
2020/12/31 20:28:10;;;;;;;8.50;7.60;;;5.60;37.60;;;;;;10451987;28;20259;-69
2020/12/31 20:33:13;;;;;;;9.97;9.07;;;5.50;37.60;;;;;;10453254;28;20680;-69
2020/12/31 20:38:16;;;;;;;9.27;8.20;;;5.60;37.70;;;;;;10455973;28;20247;-75
2020/12/31 20:43:18;;;;;;;10.17;9.13;;;5.60;37.70;;;;;;10447832;28;20220;-75
2020/12/31 20:48:20;;;;;;;11.20;10.10;;;5.60;37.60;;;;;;10451369;28;20232;-75
2020/12/31 20:53:23;;;;;;;11.63;10.43;;;5.60;37.50;;;;;;10448130;28;20233;-75
2020/12/31 20:58:25;;;;;;;25.53;19.33;;;5.60;37.70;;;;;;10458001;28;20308;-75
2020/12/31 21:03:27;;;;;;;21.80;16.57;;;5.60;37.70;;;;;;10447377;28;20225;-75
2020/12/31 21:08:30;;;;;;;9.80;8.27;;;5.50;37.80;;;;;;10460950;28;20239;-75
2020/12/31 21:13:33;;;;;;;11.20;8.17;;;5.50;38.00;;;;;;10470313;28;20220;-75
2020/12/31 21:18:35;;;;;;;8.70;7.80;;;5.50;38.20;;;;;;10466043;28;20231;-75
2020/12/31 21:23:40;;;;;;;6.33;5.70;;;5.50;38.20;;;;;;10463531;28;20224;-74
2020/12/31 21:28:43;;;;;;;6.77;6.13;;;5.50;38.60;;;;;;10459648;28;20615;-75
2020/12/31 21:33:45;;;;;;;10.47;9.47;;;5.60;38.50;;;;;;10472605;28;20259;-75
2020/12/31 21:38:50;;;;;;;11.03;9.43;;;5.60;38.30;;;;;;10459803;28;20239;-74
2020/12/31 21:43:54;;;;;;;10.67;9.63;;;5.60;38.40;;;;;;10462472;28;20225;-75
2020/12/31 21:48:58;;;;;;;13.00;10.67;;;5.60;38.40;;;;;;10459361;28;20237;-74
2020/12/31 21:54:01;;;;;;;11.00;9.90;;;5.60;38.50;;;;;;10458845;28;20658;-74
2020/12/31 21:59:04;;;;;;;20.60;17.87;;;5.60;38.50;;;;;;10459282;28;20232;-74
2020/12/31 22:04:08;;;;;;;11.13;9.97;;;5.60;38.50;;;;;;10461812;28;20634;-74
2020/12/31 22:09:11;;;;;;;14.03;11.53;;;5.60;38.50;;;;;;10455084;28;20782;-74
2020/12/31 22:14:13;;;;;;;13.03;11.27;;;5.60;38.40;;;;;;10457440;28;20656;-74
2020/12/31 22:19:15;;;;;;;12.63;11.33;;;5.60;38.70;;;;;;10468392;28;20653;-74
2020/12/31 22:24:19;;;;;;;15.03;12.73;;;5.60;38.70;;;;;;10472053;28;20233;-74
2020/12/31 22:29:21;;;;;;;16.17;13.37;;;5.60;38.70;;;;;;10457103;28;20237;-74
2020/12/31 22:34:23;;;;;;;15.87;14.20;;;5.60;38.60;;;;;;10455417;28;20305;-74
2020/12/31 22:39:27;;;;;;;14.13;12.83;;;5.50;38.70;;;;;;10456326;28;20227;-74
2020/12/31 22:44:30;;;;;;;14.33;12.77;;;5.40;38.90;;;;;;10458577;28;20231;-74
2020/12/31 22:49:34;;;;;;;14.23;11.93;;;5.40;39.00;;;;;;10455289;28;20621;-74
2020/12/31 22:54:37;;;;;;;12.10;10.90;;;5.40;39.00;;;;;;10457663;28;20313;-74
2020/12/31 22:59:40;;;;;;;13.83;11.83;;;5.40;39.20;;;;;;10458955;28;20225;-74
2020/12/31 23:04:42;;;;;;;12.00;10.50;;;5.40;39.00;;;;;;10460882;28;20709;-74
2020/12/31 23:09:46;;;;;;;11.53;10.33;;;5.40;39.80;;;;;;10452748;28;20229;-74
2020/12/31 23:14:49;;;;;;;12.47;11.17;;;5.50;39.10;;;;;;10454797;28;20233;-74
2020/12/31 23:19:51;;;;;;;17.23;14.83;;;5.60;38.90;;;;;;10457057;28;20739;-74
2020/12/31 23:24:54;;;;;;;11.07;9.97;;;5.60;38.90;;;;;;10451514;28;20701;-74
2020/12/31 23:29:56;;;;;;;9.87;8.27;;;5.60;39.00;;;;;;10463567;28;20631;-74
2020/12/31 23:34:58;;;;;;;13.97;12.10;;;5.60;38.80;;;;;;10450890;28;20228;-74
2020/12/31 23:40:01;;;;;;;19.37;15.87;;;5.60;38.80;;;;;;10457947;28;20231;-75
2020/12/31 23:45:06;;;;;;;20.67;17.27;;;5.60;38.90;;;;;;10451641;28;20229;-74
2020/12/31 23:50:10;;;;;;;18.30;14.50;;;5.70;38.90;;;;;;10452448;28;20221;-74
2020/12/31 23:55:13;;;;;;;18.37;16.37;;;5.60;38.80;;;;;;10451745;28;20238;-74
